createdAt,value
2018-04-10T00:00:20.612Z,10.96
2018-04-10T00:02:48.851Z,10.95
2018-04-10T00:05:17.817Z,10.93
2018-04-10T00:07:47.596Z,10.90
2018-04-10T00:10:15.910Z,10.84
2018-04-10T00:12:44.081Z,10.77
2018-04-10T00:15:12.316Z,10.72
2018-04-10T00:17:41.252Z,10.70
2018-04-10T00:20:09.479Z,10.70
2018-04-10T00:22:37.684Z,10.70
2018-04-10T00:25:06.918Z,10.69
2018-04-10T00:27:35.120Z,10.67
2018-04-10T00:30:06.029Z,10.65
2018-04-10T00:32:34.329Z,10.62
2018-04-10T00:35:02.556Z,10.57
2018-04-10T00:37:31.528Z,10.60
2018-04-10T00:39:59.717Z,10.61
2018-04-10T00:42:27.939Z,10.62
2018-04-10T00:44:57.117Z,10.60
2018-04-10T00:47:26.162Z,10.58
2018-04-10T00:49:54.489Z,10.54
2018-04-10T00:52:24.872Z,10.50
2018-04-10T00:54:53.233Z,10.47
2018-04-10T00:57:21.420Z,10.46
2018-04-10T00:59:49.705Z,10.44
2018-04-10T01:02:19.951Z,10.41
2018-04-10T01:04:50.972Z,10.35
2018-04-10T01:07:20.887Z,10.25
2018-04-10T01:09:49.888Z,10.15
2018-04-10T01:12:19.679Z,10.08
2018-04-10T01:14:47.839Z,10.01
2018-04-10T01:17:16.069Z,10.00
2018-04-10T01:19:45.988Z,10.01
2018-04-10T01:22:14.925Z,10.00
2018-04-10T01:24:43.122Z,9.96
2018-04-10T01:27:11.325Z,9.95
2018-04-10T01:29:41.241Z,9.96
2018-04-10T01:32:09.415Z,9.96
2018-04-10T01:34:37.584Z,9.94
2018-04-10T01:37:05.761Z,9.91
2018-04-10T01:39:33.931Z,9.86
2018-04-10T01:42:03.844Z,9.82
2018-04-10T01:44:32.044Z,9.80
2018-04-10T01:49:37.288Z,9.62
2018-04-10T01:52:06.450Z,9.52
2018-04-10T01:54:34.682Z,9.49
2018-04-10T01:57:03.672Z,9.50
2018-04-10T01:59:32.573Z,9.50
2018-04-10T02:02:00.858Z,9.51
2018-04-10T02:04:31.674Z,9.50
2018-04-10T02:06:59.858Z,9.51
2018-04-10T02:09:45.529Z,9.52
2018-04-10T02:12:13.712Z,9.51
2018-04-10T02:14:41.890Z,9.52
2018-04-10T02:17:10.054Z,9.50
2018-04-10T02:19:38.311Z,9.50
2018-04-10T02:22:07.133Z,9.47
2018-04-10T02:24:38.229Z,9.38
2018-04-10T02:27:06.443Z,9.30
2018-04-10T02:29:34.608Z,9.22
2018-04-10T02:32:02.820Z,9.14
2018-04-10T02:34:30.995Z,9.12
2018-04-10T02:36:59.241Z,9.10
2018-04-10T02:39:29.043Z,9.05
2018-04-10T02:41:57.983Z,9.03
2018-04-10T02:44:26.179Z,9.01
2018-04-10T02:46:54.343Z,9.00
2018-04-10T02:49:22.525Z,9.02
2018-04-10T02:51:50.869Z,9.02
2018-04-10T02:54:19.053Z,9.03
2018-04-10T02:56:49.729Z,9.03
2018-04-10T02:59:17.982Z,9.07
2018-04-10T03:01:46.169Z,9.05
2018-04-10T03:04:14.359Z,9.07
2018-04-10T03:06:42.577Z,9.05
2018-04-10T03:09:10.733Z,9.01
2018-04-10T03:11:38.951Z,8.99
2018-04-10T03:14:07.167Z,8.91
2018-04-10T03:16:35.389Z,8.82
2018-04-10T03:19:03.556Z,8.65
2018-04-10T03:21:32.493Z,8.52
2018-04-10T03:24:02.269Z,8.47
2018-04-10T03:26:30.578Z,8.49
2018-04-10T03:28:58.815Z,8.51
2018-04-10T03:31:27.001Z,8.52
2018-04-10T03:33:57.583Z,8.54
2018-04-10T03:36:27.695Z,8.55
2018-04-10T03:38:56.075Z,8.52
2018-04-10T03:41:24.561Z,8.48
2018-04-10T03:43:55.785Z,8.48
2018-04-10T03:46:24.004Z,8.49
2018-04-10T03:48:52.237Z,8.50
2018-04-10T03:51:20.500Z,8.53
2018-04-10T03:53:48.726Z,8.54
2018-04-10T03:56:18.674Z,8.57
2018-04-10T03:58:46.994Z,8.57
2018-04-10T04:01:15.162Z,8.57
2018-04-10T04:03:43.369Z,8.57
2018-04-10T04:06:13.452Z,8.57
2018-04-10T04:08:41.813Z,8.55
2018-04-10T04:11:10.172Z,8.53
2018-04-10T04:13:38.430Z,8.46
2018-04-10T04:16:09.016Z,8.37
2018-04-10T04:18:49.165Z,8.39
2018-04-10T04:21:32.673Z,8.43
2018-04-10T04:24:01.716Z,8.46
2018-04-10T04:26:29.988Z,8.44
2018-04-10T04:28:58.197Z,8.43
2018-04-10T04:31:26.425Z,8.43
2018-04-10T04:33:54.626Z,8.41
2018-04-10T04:36:22.866Z,8.39
2018-04-10T04:38:52.799Z,8.40
2018-04-10T04:41:20.983Z,8.44
2018-04-10T04:43:49.216Z,8.50
2018-04-10T04:46:17.744Z,8.55
2018-04-10T04:48:46.026Z,8.55
2018-04-10T04:51:16.901Z,8.60
2018-04-10T04:53:46.931Z,8.58
2018-04-10T04:56:17.066Z,8.55
2018-04-10T04:58:46.821Z,8.55
2018-04-10T05:01:14.998Z,8.54
2018-04-10T05:03:43.260Z,8.56
2018-04-10T05:06:14.126Z,8.54
2018-04-10T05:08:42.335Z,8.44
2018-04-10T05:11:13.567Z,8.36
2018-04-10T05:13:43.933Z,8.38
2018-04-10T05:16:19.441Z,8.45
2018-04-10T05:18:50.273Z,8.52
2018-04-10T05:21:18.481Z,8.50
2018-04-10T05:23:47.853Z,8.48
2018-04-10T05:26:16.797Z,8.48
2018-04-10T05:28:45.007Z,8.47
2018-04-10T05:31:13.295Z,8.50
2018-04-10T05:33:41.545Z,8.54
2018-04-10T05:36:09.785Z,8.61
2018-04-10T05:38:40.823Z,8.65
2018-04-10T05:41:09.017Z,8.69
2018-04-10T05:43:37.947Z,8.73
2018-04-10T05:46:09.678Z,8.81
2018-04-10T05:48:37.904Z,8.88
2018-04-10T05:51:06.077Z,8.97
2018-04-10T05:53:34.263Z,9.02
2018-04-10T05:56:04.242Z,9.05
2018-04-10T05:58:34.035Z,9.06
2018-04-10T06:01:02.241Z,9.07
2018-04-10T06:03:30.413Z,9.10
2018-04-10T06:06:00.475Z,9.15
2018-04-10T06:08:28.843Z,9.18
2018-04-10T06:10:58.664Z,9.20
2018-04-10T06:13:26.847Z,9.28
2018-04-10T06:15:55.020Z,9.35
2018-04-10T06:18:25.896Z,9.38
2018-04-10T06:20:54.109Z,9.29
2018-04-10T06:23:22.297Z,9.35
2018-04-10T06:25:50.460Z,9.42
2018-04-10T06:28:20.374Z,9.50
2018-04-10T06:30:48.584Z,9.57
2018-04-10T06:33:16.796Z,9.62
2018-04-10T06:35:44.955Z,9.66
2018-04-10T06:38:13.153Z,9.73
2018-04-10T06:40:41.333Z,9.81
2018-04-10T06:43:11.279Z,9.89
2018-04-10T06:45:39.501Z,10.00
2018-04-10T06:48:07.735Z,10.10
2018-04-10T06:50:35.917Z,10.22
2018-04-10T06:53:04.119Z,10.34
2018-04-10T06:55:32.397Z,10.45
2018-04-10T06:58:00.597Z,10.54
2018-04-10T07:00:28.796Z,10.63
2018-04-10T07:02:56.997Z,10.74
2018-04-10T07:05:25.213Z,10.87
2018-04-10T07:07:54.333Z,10.93
2018-04-10T07:10:22.659Z,11.02
2018-04-10T07:12:51.673Z,11.10
2018-04-10T07:15:19.915Z,11.17
2018-04-10T07:17:50.017Z,11.27
2018-04-10T07:20:18.240Z,11.34
2018-04-10T07:22:47.428Z,11.45
2018-04-10T07:25:16.329Z,11.60
2018-04-10T07:27:46.721Z,11.78
2018-04-10T07:30:15.718Z,11.96
2018-04-10T07:32:44.005Z,12.08
2018-04-10T07:35:12.191Z,12.21
2018-04-10T07:37:40.383Z,12.38
2018-04-10T07:40:08.575Z,12.53
2018-04-10T07:42:36.768Z,12.71
2018-04-10T07:45:04.992Z,12.90
2018-04-10T07:47:33.188Z,13.05
2018-04-10T07:50:02.613Z,13.17
2018-04-10T07:52:32.366Z,13.30
2018-04-10T07:55:01.723Z,13.45
2018-04-10T07:57:30.058Z,13.63
2018-04-10T07:59:59.094Z,13.74
2018-04-10T08:02:27.356Z,13.87
2018-04-10T08:04:55.621Z,14.00
2018-04-10T08:07:25.490Z,14.15
2018-04-10T08:09:53.737Z,14.24
2018-04-10T08:12:23.594Z,14.36
2018-04-10T08:14:51.860Z,14.43
2018-04-10T08:17:21.667Z,14.51
2018-04-10T08:19:49.866Z,14.57
2018-04-10T08:22:18.150Z,14.68
2018-04-10T08:24:46.339Z,14.78
2018-04-10T08:27:16.306Z,14.89
2018-04-10T08:29:44.512Z,14.96
2018-04-10T08:32:12.754Z,15.03
2018-04-10T08:34:41.761Z,15.11
2018-04-10T08:37:12.594Z,15.20
2018-04-10T08:39:43.777Z,15.30
2018-04-10T08:42:14.205Z,15.38
2018-04-10T08:44:43.943Z,15.41
2018-04-10T08:47:13.213Z,15.37
2018-04-10T08:49:43.195Z,15.48
2018-04-10T08:52:11.450Z,15.63
2018-04-10T08:54:39.776Z,15.68
2018-04-10T08:57:07.966Z,15.70
2018-04-10T08:59:36.970Z,15.76
2018-04-10T09:02:05.143Z,15.77
2018-04-10T09:04:33.367Z,15.80
2018-04-10T09:07:01.559Z,15.89
2018-04-10T09:09:29.789Z,15.94
2018-04-10T09:11:59.935Z,15.98
2018-04-10T09:14:28.162Z,15.99
2018-04-10T09:16:56.361Z,16.06
2018-04-10T09:19:24.553Z,16.09
2018-04-10T09:21:52.865Z,16.03
2018-04-10T09:24:21.111Z,16.09
2018-04-10T09:26:49.321Z,16.20
2018-04-10T09:29:19.136Z,16.33
2018-04-10T09:31:47.456Z,16.45
2018-04-10T09:34:16.407Z,16.48
2018-04-10T09:36:44.675Z,16.48
2018-04-10T09:39:15.477Z,16.42
2018-04-10T09:41:43.783Z,16.39
2018-04-10T09:44:12.010Z,16.38
2018-04-10T09:46:43.536Z,16.45
2018-04-10T09:49:11.826Z,16.54
2018-04-10T09:51:41.823Z,16.58
2018-04-10T09:54:10.057Z,16.57
2018-04-10T09:56:38.259Z,16.54
2018-04-10T09:59:07.252Z,16.52
2018-04-10T10:01:36.738Z,16.59
2018-04-10T10:04:07.616Z,16.63
2018-04-10T10:06:40.606Z,16.63
2018-04-10T10:09:09.675Z,16.65
2018-04-10T10:11:37.906Z,16.65
2018-04-10T10:14:06.120Z,16.65
2018-04-10T10:16:34.504Z,16.66
2018-04-10T10:19:05.356Z,16.72
2018-04-10T10:21:33.646Z,16.78
2018-04-10T10:24:01.885Z,16.77
2018-04-10T10:26:31.894Z,16.81
2018-04-10T10:29:00.097Z,16.82
2018-04-10T10:31:28.348Z,16.89
2018-04-10T10:33:59.191Z,16.98
2018-04-10T10:36:28.453Z,16.93
2018-04-10T10:38:58.436Z,17.00
2018-04-10T10:41:28.315Z,17.01
2018-04-10T10:43:56.567Z,17.06
2018-04-10T10:46:24.857Z,17.12
2018-04-10T10:48:53.144Z,17.13
2018-04-10T10:51:21.370Z,17.09
2018-04-10T10:53:50.159Z,17.09
2018-04-10T10:56:18.523Z,17.10
2018-04-10T10:58:46.801Z,17.14
2018-04-10T11:01:17.797Z,17.06
2018-04-10T11:03:46.796Z,17.06
2018-04-10T11:06:15.022Z,17.11
2018-04-10T11:08:43.976Z,17.08
2018-04-10T11:11:12.172Z,17.13
2018-04-10T11:13:40.366Z,17.13
2018-04-10T11:16:08.667Z,17.16
2018-04-10T11:18:37.306Z,17.22
2018-04-10T11:21:06.412Z,17.24
2018-04-10T11:23:34.610Z,17.26
2018-04-10T11:26:02.835Z,17.26
2018-04-10T11:28:31.145Z,17.30
2018-04-10T11:30:59.627Z,17.30
2018-04-10T11:33:27.889Z,17.30
2018-04-10T11:35:56.087Z,17.36
2018-04-10T11:38:24.448Z,17.37
2018-04-10T11:40:52.778Z,17.36
2018-04-10T11:43:21.086Z,17.36
2018-04-10T11:45:49.329Z,17.39
2018-04-10T11:48:17.542Z,17.43
2018-04-10T11:50:45.799Z,17.43
2018-04-10T11:53:14.059Z,17.38
2018-04-10T11:55:42.289Z,17.38
2018-04-10T11:58:11.328Z,17.37
2018-04-10T12:00:40.030Z,17.33
2018-04-10T12:03:10.158Z,17.38
2018-04-10T12:05:38.463Z,17.41
2018-04-10T12:08:07.736Z,17.39
2018-04-10T12:10:37.769Z,17.40
2018-04-10T12:13:06.017Z,17.40
2018-04-10T12:15:34.284Z,17.36
2018-04-10T12:18:03.540Z,17.27
2018-04-10T12:20:31.755Z,17.06
2018-04-10T12:23:00.021Z,16.97
2018-04-10T12:25:28.231Z,16.95
2018-04-10T12:27:59.005Z,16.88
2018-04-10T12:30:27.197Z,16.87
2018-04-10T12:32:55.527Z,16.83
2018-04-10T12:35:24.494Z,16.88
2018-04-10T12:37:52.805Z,16.99
2018-04-10T12:40:21.040Z,17.10
2018-04-10T12:42:54.277Z,17.14
2018-04-10T12:45:23.457Z,17.12
2018-04-10T12:47:51.681Z,17.12
2018-04-10T12:50:19.903Z,17.19
2018-04-10T12:52:48.280Z,17.26
2018-04-10T12:55:16.565Z,17.34
2018-04-10T12:57:44.798Z,17.39
2018-04-10T13:00:13.109Z,17.44
2018-04-10T13:02:41.423Z,17.51
2018-04-10T13:05:09.794Z,17.55
2018-04-10T13:07:38.100Z,17.60
2018-04-10T13:10:06.309Z,17.65
2018-04-10T13:12:36.268Z,17.71
2018-04-10T13:15:04.552Z,17.69
2018-04-10T13:17:32.778Z,17.77
2018-04-10T13:20:00.966Z,17.86
2018-04-10T13:22:29.276Z,17.86
2018-04-10T13:24:57.629Z,17.85
2018-04-10T13:27:26.707Z,17.87
2018-04-10T13:29:58.737Z,17.93
2018-04-10T13:32:27.010Z,18.00
2018-04-10T13:34:55.232Z,18.10
2018-04-10T13:37:23.467Z,18.24
2018-04-10T13:39:51.775Z,18.29
2018-04-10T13:42:22.608Z,18.34
2018-04-10T13:44:50.856Z,18.40
2018-04-10T13:47:20.819Z,18.50
2018-04-10T13:52:23.527Z,18.50
2018-04-10T13:54:53.524Z,18.51
2018-04-10T13:57:24.347Z,18.62
2018-04-10T13:59:55.803Z,18.72
2018-04-10T14:02:24.044Z,18.90
2018-04-10T14:04:53.992Z,18.97
2018-04-10T14:07:22.244Z,19.18
2018-04-10T14:09:50.515Z,19.30
2018-04-10T14:12:20.416Z,19.36
2018-04-10T14:14:51.248Z,19.30
2018-04-10T14:17:20.239Z,19.30
2018-04-10T14:19:50.491Z,19.26
2018-04-10T14:22:20.417Z,19.27
2018-04-10T14:24:51.535Z,19.21
2018-04-10T14:27:21.603Z,19.36
2018-04-10T14:29:49.981Z,19.65
2018-04-10T14:32:18.327Z,19.74
2018-04-10T14:34:47.733Z,19.98
2018-04-10T14:37:15.930Z,20.48
2018-04-10T14:39:45.834Z,20.55
2018-04-10T14:42:14.054Z,20.28
2018-04-10T14:44:43.064Z,20.21
2018-04-10T14:47:13.884Z,20.11
2018-04-10T14:49:43.028Z,20.06
2018-04-10T14:52:11.319Z,20.03
2018-04-10T14:54:39.681Z,19.94
2018-04-10T14:57:07.953Z,19.93
2018-04-10T14:59:36.279Z,19.90
2018-04-10T15:02:06.265Z,19.85
2018-04-10T15:04:35.238Z,19.79
2018-04-10T15:07:03.469Z,19.76
2018-04-10T15:09:32.961Z,19.71
2018-04-10T15:12:01.250Z,19.65
2018-04-10T15:14:31.155Z,19.57
2018-04-10T15:16:59.381Z,19.46
2018-04-10T15:19:28.493Z,19.38
2018-04-10T15:21:56.806Z,19.29
2018-04-10T15:24:25.027Z,19.24
2018-04-10T15:26:53.252Z,19.19
2018-04-10T15:29:21.502Z,19.13
2018-04-10T15:31:51.483Z,18.91
2018-04-10T15:34:19.709Z,18.86
2018-04-10T15:36:49.948Z,18.79
2018-04-10T15:39:19.819Z,18.71
2018-04-10T15:41:49.789Z,18.61
2018-04-10T15:44:17.997Z,18.54
2018-04-10T15:46:46.253Z,18.52
2018-04-10T15:49:14.501Z,18.47
2018-04-10T15:51:44.360Z,18.42
2018-04-10T15:54:15.225Z,18.36
2018-04-10T15:56:49.013Z,18.27
2018-04-10T15:59:17.230Z,18.26
2018-04-10T16:01:47.046Z,18.25
2018-04-10T16:04:15.244Z,18.24
2018-04-10T16:06:43.595Z,18.21
2018-04-10T16:09:11.817Z,18.17
2018-04-10T16:11:40.092Z,18.13
2018-04-10T16:14:08.350Z,18.09
2018-04-10T16:16:36.537Z,18.03
2018-04-10T16:19:05.041Z,18.00
2018-04-10T16:21:33.280Z,17.97
2018-04-10T16:24:03.239Z,17.95
2018-04-10T16:26:32.173Z,17.90
2018-04-10T16:29:01.167Z,17.87
2018-04-10T16:31:30.587Z,17.84
2018-04-10T16:34:01.106Z,17.78
2018-04-10T16:36:31.068Z,17.74
2018-04-10T16:38:59.446Z,17.70
2018-04-10T16:41:27.921Z,17.67
2018-04-10T16:43:56.192Z,17.63
2018-04-10T16:46:24.448Z,17.59
2018-04-10T16:48:52.717Z,17.54
2018-04-10T16:51:20.920Z,17.48
2018-04-10T16:53:49.848Z,17.44
2018-04-10T16:56:18.082Z,17.39
2018-04-10T16:58:47.256Z,17.34
2018-04-10T17:01:15.588Z,17.29
2018-04-10T17:03:45.548Z,17.24
2018-04-10T17:06:13.885Z,17.19
2018-04-10T17:08:44.793Z,17.13
2018-04-10T17:11:14.950Z,17.04
2018-04-10T17:13:43.695Z,16.98
2018-04-10T17:18:52.081Z,16.85
2018-04-10T17:21:23.361Z,16.79
2018-04-10T17:23:55.841Z,16.72
2018-04-10T17:26:24.219Z,16.66
2018-04-10T17:28:55.352Z,16.60
2018-04-10T17:31:27.626Z,16.53
2018-04-10T17:33:59.287Z,16.46
2018-04-10T17:36:29.167Z,16.40
2018-04-10T17:38:57.445Z,16.32
2018-04-10T17:41:25.686Z,16.25
2018-04-10T17:43:54.023Z,16.19
2018-04-10T17:46:22.645Z,16.13
2018-04-10T17:48:52.042Z,16.07
2018-04-10T17:51:22.056Z,16.01
2018-04-10T17:53:50.292Z,15.95
2018-04-10T17:56:19.786Z,15.89
2018-04-10T17:58:48.268Z,15.84
2018-04-10T18:01:16.494Z,15.79
2018-04-10T18:03:44.729Z,15.74
2018-04-10T18:06:13.053Z,15.67
2018-04-10T18:08:41.293Z,15.61
2018-04-10T18:11:09.607Z,15.55
2018-04-10T18:13:39.684Z,15.51
2018-04-10T18:16:07.965Z,15.47
2018-04-10T18:18:37.925Z,15.40
2018-04-10T18:21:07.394Z,15.36
2018-04-10T18:23:35.798Z,15.30
2018-04-10T18:26:04.873Z,15.26
2018-04-10T18:28:33.252Z,15.23
2018-04-10T18:31:03.430Z,15.20
2018-04-10T18:33:32.493Z,15.19
2018-04-10T18:36:01.077Z,15.17
2018-04-10T18:38:29.661Z,15.14
2018-04-10T18:40:58.008Z,15.12
2018-04-10T18:43:27.161Z,15.09
2018-04-10T18:45:55.540Z,15.06
2018-04-10T18:48:23.816Z,15.05
2018-04-10T18:50:52.320Z,15.04
2018-04-10T18:53:20.763Z,15.00
2018-04-10T18:55:49.142Z,14.95
2018-04-10T18:58:17.429Z,14.89
2018-04-10T19:00:46.018Z,14.84
2018-04-10T19:03:14.239Z,14.80
2018-04-10T19:05:46.454Z,14.79
2018-04-10T19:08:14.881Z,14.76
2018-04-10T19:10:43.320Z,14.73
2018-04-10T19:13:11.619Z,14.71
2018-04-10T19:15:41.729Z,14.68
2018-04-10T19:20:44.409Z,14.61
2018-04-10T19:23:13.170Z,14.62
2018-04-10T19:25:42.426Z,14.61
2018-04-10T19:28:10.913Z,14.58
2018-04-10T19:30:39.394Z,14.55
2018-04-10T19:33:08.397Z,14.53
2018-04-10T19:35:39.290Z,14.51
2018-04-10T19:38:07.570Z,14.49
2018-04-10T19:40:37.547Z,14.47
2018-04-10T19:43:05.857Z,14.45
2018-04-10T19:45:36.623Z,14.44
2018-04-10T19:48:05.136Z,14.42
2018-04-10T19:50:33.516Z,14.41
2018-04-10T19:53:01.867Z,14.40
2018-04-10T19:55:30.333Z,14.38
2018-04-10T19:57:58.767Z,14.34
2018-04-10T20:00:27.066Z,14.22
2018-04-10T20:02:55.686Z,14.19
2018-04-10T20:05:24.783Z,14.19
2018-04-10T20:07:54.704Z,14.19
2018-04-10T20:10:22.935Z,14.21
2018-04-10T20:12:52.134Z,14.21
2018-04-10T20:15:20.373Z,14.24
2018-04-10T20:17:51.205Z,14.26
2018-04-10T20:20:19.547Z,14.33
2018-04-10T20:22:47.795Z,14.41
2018-04-10T20:25:16.070Z,14.43
2018-04-10T20:27:47.903Z,14.44
2018-04-10T20:30:16.101Z,14.46
2018-04-10T20:32:49.394Z,14.40
2018-04-10T20:35:17.836Z,14.39
2018-04-10T20:37:46.104Z,14.36
2018-04-10T20:40:14.478Z,14.31
2018-04-10T20:42:43.233Z,14.25
2018-04-10T20:45:14.660Z,14.15
2018-04-10T20:47:50.441Z,14.09
2018-04-10T20:50:18.919Z,14.03
2018-04-10T20:52:47.326Z,13.98
2018-04-10T20:55:15.849Z,13.84
2018-04-10T20:57:44.134Z,13.72
2018-04-10T21:00:14.114Z,13.61
2018-04-10T21:02:42.388Z,13.46
2018-04-10T21:05:13.269Z,13.34
2018-04-10T21:07:42.258Z,13.26
2018-04-10T21:10:11.566Z,13.18
2018-04-10T21:12:39.848Z,13.13
2018-04-10T21:15:08.112Z,13.05
2018-04-10T21:17:36.519Z,12.99
2018-04-10T21:20:04.795Z,12.92
2018-04-10T21:22:32.982Z,12.84
2018-04-10T21:25:01.973Z,12.78
2018-04-10T21:27:30.210Z,12.72
2018-04-10T21:29:58.442Z,12.68
2018-04-10T21:32:28.431Z,12.63
2018-04-10T21:34:56.613Z,12.63
2018-04-10T21:37:24.844Z,12.62
2018-04-10T21:39:53.052Z,12.58
2018-04-10T21:42:21.391Z,12.56
2018-04-10T21:44:49.583Z,12.56
2018-04-10T21:47:18.531Z,12.58
2018-04-10T21:49:46.735Z,12.52
2018-04-10T21:52:14.915Z,12.49
2018-04-10T21:54:43.885Z,12.43
2018-04-10T21:57:12.167Z,12.43
2018-04-10T21:59:40.366Z,12.45
2018-04-10T22:02:08.585Z,12.45
2018-04-10T22:04:36.817Z,12.43
2018-04-10T22:07:05.031Z,12.40
2018-04-10T22:09:33.174Z,12.40
2018-04-10T22:12:02.199Z,12.40
2018-04-10T22:14:30.351Z,12.38
2018-04-10T22:16:58.539Z,12.37
2018-04-10T22:19:39.233Z,12.38
2018-04-10T22:22:07.391Z,12.39
2018-04-10T22:24:35.535Z,12.39
2018-04-10T22:27:03.730Z,12.41
2018-04-10T22:29:31.872Z,12.43
2018-04-10T22:32:00.123Z,12.43
2018-04-10T22:34:28.272Z,12.45
2018-04-10T22:36:56.441Z,12.45
2018-04-10T22:39:24.654Z,12.43
2018-04-10T22:41:52.797Z,12.42
2018-04-10T22:44:20.955Z,12.45
2018-04-10T22:46:49.105Z,12.43
2018-04-10T22:49:17.295Z,12.42
2018-04-10T22:51:45.481Z,12.37
2018-04-10T22:54:13.631Z,12.34
2018-04-10T22:56:41.787Z,12.28
2018-04-10T22:59:09.938Z,12.25
2018-04-10T23:01:38.143Z,12.19
2018-04-10T23:04:07.005Z,12.15
2018-04-10T23:06:35.188Z,12.16
2018-04-10T23:09:03.343Z,12.11
2018-04-10T23:11:31.507Z,12.08
2018-04-10T23:13:59.693Z,12.05
2018-04-10T23:16:27.845Z,12.05
2018-04-10T23:18:56.009Z,12.07
2018-04-10T23:21:31.153Z,12.05
2018-04-10T23:23:59.313Z,12.05
2018-04-10T23:26:27.481Z,12.06
2018-04-10T23:28:55.664Z,12.06
2018-04-10T23:31:23.848Z,12.02
2018-04-10T23:33:52.002Z,11.98
2018-04-10T23:36:20.224Z,11.97
2018-04-10T23:38:48.448Z,11.97
2018-04-10T23:41:16.686Z,11.95
2018-04-10T23:43:45.029Z,11.94
2018-04-10T23:46:13.250Z,11.91
2018-04-10T23:48:41.401Z,11.93
2018-04-10T23:51:09.553Z,11.93
2018-04-10T23:53:38.483Z,11.92
2018-04-10T23:56:06.669Z,11.86
2018-04-10T23:58:34.829Z,11.81
